createdAt,value
2022-10-07T00:03:30.100Z,1004
2022-10-07T00:08:34.634Z,1004
2022-10-07T00:13:38.106Z,1004
2022-10-07T00:18:42.666Z,1003
2022-10-07T00:23:47.204Z,1003
2022-10-07T00:28:50.757Z,1003
2022-10-07T00:33:55.274Z,1003
2022-10-07T00:38:59.803Z,1003
2022-10-07T00:44:04.300Z,1003
2022-10-07T00:49:07.841Z,1003
2022-10-07T00:54:12.449Z,1003
2022-10-07T00:59:16.953Z,1003
2022-10-07T01:04:20.475Z,1003
2022-10-07T01:09:25.088Z,1003
2022-10-07T01:14:29.579Z,1003
2022-10-07T01:19:33.128Z,1003
2022-10-07T01:24:37.684Z,1003
2022-10-07T01:29:41.224Z,1003
2022-10-07T01:34:45.743Z,1003
2022-10-07T01:39:50.353Z,1003
2022-10-07T01:44:54.080Z,1003
2022-10-07T01:49:58.354Z,1003
2022-10-07T01:55:02.923Z,1003
2022-10-07T02:00:06.504Z,1002
2022-10-07T02:05:10.948Z,1002
2022-10-07T02:10:15.513Z,1002
2022-10-07T02:15:19.055Z,1002
2022-10-07T02:20:23.609Z,1002
2022-10-07T02:25:28.170Z,1002
2022-10-07T02:30:32.661Z,1002
2022-10-07T02:35:36.227Z,1002
2022-10-07T02:40:40.746Z,1002
2022-10-07T02:45:45.273Z,1002
2022-10-07T02:50:48.900Z,1002
2022-10-07T02:55:53.508Z,1002
2022-10-07T03:00:57.885Z,1002
2022-10-07T03:06:01.434Z,1002
2022-10-07T03:11:06.002Z,1002
2022-10-07T03:16:10.592Z,1002
2022-10-07T03:21:14.055Z,1002
2022-10-07T03:26:18.645Z,1002
2022-10-07T03:31:23.253Z,1002
2022-10-07T03:36:27.678Z,1002
2022-10-07T03:41:31.244Z,1002
2022-10-07T03:46:35.844Z,1002
2022-10-07T03:51:40.298Z,1001
2022-10-07T03:56:43.909Z,1002
2022-10-07T04:01:48.475Z,1001
2022-10-07T04:06:52.896Z,1001
2022-10-07T04:11:56.475Z,1001
2022-10-07T04:17:01.004Z,1001
2022-10-07T04:22:08.846Z,1001
2022-10-07T04:27:09.150Z,1001
2022-10-07T04:32:13.634Z,1001
2022-10-07T04:37:18.135Z,1001
2022-10-07T04:42:22.771Z,1001
2022-10-07T04:47:26.302Z,1001
2022-10-07T04:52:30.749Z,1001
2022-10-07T04:57:35.377Z,1001
2022-10-07T05:02:38.880Z,1001
2022-10-07T05:07:43.739Z,1001
2022-10-07T05:12:50.442Z,1001
2022-10-07T05:17:51.493Z,1001
2022-10-07T05:22:56.005Z,1001
2022-10-07T05:28:00.627Z,1001
2022-10-07T05:33:04.107Z,1001
2022-10-07T05:38:08.606Z,1001
2022-10-07T05:43:12.222Z,1001
2022-10-07T05:48:16.719Z,1001
2022-10-07T05:53:21.235Z,1001
2022-10-07T05:58:24.932Z,1001
2022-10-07T06:03:29.384Z,1001
2022-10-07T06:08:33.871Z,1001
2022-10-07T06:13:37.458Z,1001
2022-10-07T06:18:42.001Z,1001
2022-10-07T06:23:46.484Z,1001
2022-10-07T06:28:51.051Z,1001
2022-10-07T06:33:54.550Z,1001
2022-10-07T06:38:59.112Z,1001
2022-10-07T06:44:03.705Z,1001
2022-10-07T06:49:07.206Z,1001
2022-10-07T06:54:11.727Z,1001
2022-10-07T06:59:16.310Z,1001
2022-10-07T07:04:19.797Z,1001
2022-10-07T07:09:24.312Z,1001
2022-10-07T07:14:28.917Z,1001
2022-10-07T07:19:32.431Z,1001
2022-10-07T07:24:36.940Z,1001
2022-10-07T07:29:41.611Z,1001
2022-10-07T07:34:46.088Z,1001
2022-10-07T07:39:49.593Z,1001
2022-10-07T07:44:54.141Z,1001
2022-10-07T07:49:58.628Z,1001
2022-10-07T07:55:02.272Z,1001
2022-10-07T08:00:06.857Z,1001
2022-10-07T08:05:11.237Z,1001
2022-10-07T08:10:14.818Z,1001
2022-10-07T08:15:19.345Z,1001
2022-10-07T08:20:23.922Z,1001
2022-10-07T08:25:27.419Z,1001
2022-10-07T08:30:31.992Z,1001
2022-10-07T08:35:36.503Z,1001
2022-10-07T08:40:41.046Z,1001
2022-10-07T08:45:44.639Z,1001
2022-10-07T08:50:49.118Z,1001
2022-10-07T08:55:53.646Z,1001
2022-10-07T09:00:57.274Z,1001
2022-10-07T09:06:01.751Z,1001
2022-10-07T09:11:07.983Z,1001
2022-10-07T09:16:09.900Z,1001
2022-10-07T09:21:14.369Z,1001
2022-10-07T09:26:18.908Z,1000
2022-10-07T09:31:22.553Z,1000
2022-10-07T09:36:26.994Z,1001
2022-10-07T09:41:31.546Z,1000
2022-10-07T09:46:36.131Z,1000
2022-10-07T09:51:39.606Z,1000
2022-10-07T09:56:43.142Z,1000
2022-10-07T10:01:47.795Z,1000
2022-10-07T10:06:52.230Z,1000
2022-10-07T10:11:55.812Z,1000
2022-10-07T10:17:00.435Z,1000
2022-10-07T10:22:04.854Z,1000
2022-10-07T10:27:09.396Z,1000
2022-10-07T10:32:12.962Z,1000
2022-10-07T10:37:17.505Z,1000
2022-10-07T10:42:22.047Z,1000
2022-10-07T10:47:25.600Z,1000
2022-10-07T10:52:30.126Z,1000
2022-10-07T10:57:34.648Z,1000
2022-10-07T11:02:38.428Z,1000
2022-10-07T11:07:42.768Z,1000
2022-10-07T11:12:47.898Z,999
2022-10-07T11:17:50.856Z,999
2022-10-07T11:22:55.411Z,999
2022-10-07T11:28:00.034Z,999
2022-10-07T11:33:04.548Z,999
2022-10-07T11:38:08.040Z,999
2022-10-07T11:43:12.581Z,999
2022-10-07T11:48:17.111Z,999
2022-10-07T11:53:20.647Z,999
2022-10-07T11:58:25.189Z,998
2022-10-07T12:03:29.888Z,998
2022-10-07T12:08:33.306Z,998
2022-10-07T12:13:37.829Z,998
2022-10-07T12:18:42.421Z,998
2022-10-07T12:23:45.940Z,998
2022-10-07T12:28:50.456Z,998
2022-10-07T12:33:55.045Z,998
2022-10-07T12:38:59.548Z,998
2022-10-07T12:44:03.072Z,997
2022-10-07T12:49:07.789Z,997
2022-10-07T12:54:12.195Z,997
2022-10-07T12:59:15.712Z,997
2022-10-07T13:04:20.288Z,997
2022-10-07T13:09:24.824Z,997
2022-10-07T13:14:28.368Z,997
2022-10-07T13:19:32.929Z,997
2022-10-07T13:24:37.435Z,997
2022-10-07T13:29:40.957Z,997
2022-10-07T13:34:45.527Z,996
2022-10-07T13:39:50.108Z,996
2022-10-07T13:44:54.599Z,996
2022-10-07T13:49:58.210Z,996
2022-10-07T13:55:02.702Z,996
2022-10-07T14:00:07.228Z,996
2022-10-07T14:05:10.799Z,996
2022-10-07T14:10:14.332Z,996
2022-10-07T14:15:18.888Z,996
2022-10-07T14:20:23.425Z,996
2022-10-07T14:25:27.960Z,996
2022-10-07T14:30:31.658Z,996
2022-10-07T14:35:36.069Z,996
2022-10-07T14:40:40.577Z,995
2022-10-07T14:45:44.213Z,995
2022-10-07T14:50:48.706Z,995
2022-10-07T14:55:53.185Z,995
2022-10-07T15:00:56.763Z,995
2022-10-07T15:06:01.315Z,995
2022-10-07T15:11:05.813Z,995
2022-10-07T15:16:09.365Z,995
2022-10-07T15:21:13.913Z,995
2022-10-07T15:26:18.418Z,995
2022-10-07T15:31:23.059Z,995
2022-10-07T15:36:26.500Z,995
2022-10-07T15:41:31.034Z,994
2022-10-07T15:46:35.683Z,994
2022-10-07T15:51:39.147Z,994
2022-10-07T15:56:43.687Z,994
2022-10-07T16:01:48.283Z,994
2022-10-07T16:06:51.896Z,994
2022-10-07T16:11:56.297Z,994
2022-10-07T16:17:00.806Z,994
2022-10-07T16:22:04.426Z,994
2022-10-07T16:27:08.906Z,994
2022-10-07T16:32:13.440Z,994
2022-10-07T16:37:18.005Z,994
2022-10-07T16:42:21.498Z,994
2022-10-07T16:47:26.059Z,994
2022-10-07T16:52:30.618Z,994
2022-10-07T16:57:34.117Z,994
2022-10-07T17:02:38.676Z,994
2022-10-07T17:07:43.594Z,994
2022-10-07T17:12:46.746Z,994
2022-10-07T17:17:51.267Z,994
2022-10-07T17:22:55.827Z,994
2022-10-07T17:27:59.403Z,994
2022-10-07T17:33:03.906Z,994
2022-10-07T17:38:08.647Z,994
2022-10-07T17:43:12.960Z,994
2022-10-07T17:48:16.492Z,994
2022-10-07T17:53:21.069Z,994
2022-10-07T17:58:25.602Z,994
2022-10-07T18:03:29.129Z,994
2022-10-07T18:08:33.672Z,994
2022-10-07T18:13:38.221Z,994
2022-10-07T18:18:41.882Z,994
2022-10-07T18:23:46.311Z,994
2022-10-07T18:28:49.865Z,994
2022-10-07T18:33:54.380Z,994
2022-10-07T18:38:58.946Z,994
2022-10-07T18:44:02.467Z,994
2022-10-07T18:49:06.982Z,994
2022-10-07T18:54:11.543Z,994
2022-10-07T18:59:15.076Z,994
2022-10-07T19:04:19.659Z,994
2022-10-07T19:09:24.205Z,994
2022-10-07T19:14:27.722Z,994
2022-10-07T19:19:32.225Z,994
2022-10-07T19:24:36.780Z,994
2022-10-07T19:29:41.278Z,994
2022-10-07T19:34:44.844Z,994
2022-10-07T19:39:49.403Z,994
2022-10-07T19:44:53.923Z,994
2022-10-07T19:49:57.479Z,994
2022-10-07T19:55:02.054Z,994
2022-10-07T20:00:06.553Z,994
2022-10-07T20:05:10.113Z,994
2022-10-07T20:10:14.626Z,994
2022-10-07T20:15:19.171Z,994
2022-10-07T20:20:22.707Z,994
2022-10-07T20:25:27.266Z,994
2022-10-07T20:30:31.785Z,994
2022-10-07T20:35:36.297Z,994
2022-10-07T20:40:39.890Z,994
2022-10-07T20:45:44.425Z,994
2022-10-07T20:50:48.913Z,994
2022-10-07T20:55:52.510Z,994
2022-10-07T21:00:57.104Z,994
2022-10-07T21:06:01.533Z,994
2022-10-07T21:11:05.115Z,994
2022-10-07T21:16:09.699Z,994
2022-10-07T21:21:14.178Z,994
2022-10-07T21:26:17.760Z,994
2022-10-07T21:31:22.246Z,994
2022-10-07T21:36:26.800Z,994
2022-10-07T21:41:31.455Z,994
2022-10-07T21:46:34.909Z,994
2022-10-07T21:51:39.399Z,994
2022-10-07T21:56:43.999Z,994
2022-10-07T22:01:47.581Z,994
2022-10-07T22:06:52.008Z,994
2022-10-07T22:11:56.573Z,994
2022-10-07T22:17:00.122Z,994
2022-10-07T22:22:04.632Z,994
2022-10-07T22:27:09.205Z,994
2022-10-07T22:32:12.719Z,994
2022-10-07T22:37:17.234Z,994
2022-10-07T22:42:20.814Z,994
2022-10-07T22:47:25.361Z,994
2022-10-07T22:52:29.873Z,994
2022-10-07T22:57:33.456Z,993
2022-10-07T23:02:38.123Z,993
2022-10-07T23:07:42.502Z,993
2022-10-07T23:12:46.349Z,993
2022-10-07T23:17:50.561Z,993
2022-10-07T23:22:55.140Z,993
2022-10-07T23:27:59.706Z,993
2022-10-07T23:33:03.221Z,993
2022-10-07T23:38:07.722Z,993
2022-10-07T23:43:12.292Z,993
2022-10-07T23:48:15.828Z,993
2022-10-07T23:53:20.328Z,993
2022-10-07T23:58:25.002Z,993
